Terminal Aerodrome Forecast
Issued by NWS Atlanta, GA

Home | Current Version | Previous Version | Text Only | Print | Product List | Glossary On
Versions: 1 2 3 4 5 6 7 8 9 10 11 12 13 14 15 16 17 18 19 20 21 22 23 24 25 26 27 28 29
000
FTAK31 PAJN 251100
TAFAHN
TAF
PAHN 251139Z 2512/2612 12005KT P6SM BKN040
     FM251400 VRB05KT P6SM BKN030
     FM251900 12008KT P6SM SCT040 SCT150
     FM260600 09004KT P6SM SCT120
      AMD LTD TO CLD VIS AND WIND=

USA.gov is the U.S. government's official web portal to all federal, state and local government web resources and services.